Terminal Aerodrome Forecast
Issued by NWS Upton, NY

Home | Current Version | Previous Version | Text Only | Print | Product List | Glossary On
Versions: 1 2 3 4 5 6 7 8 9 10 11 12 13 14 15 16 17 18 19 20 21 22 23 24 25 26 27 28 29 30 31 32
399
FTUS41 KOKX 312341
TAFLGA
TAF
KLGA 312341Z 0100/0124 18010KT P6SM SCT060 BKN250
     FM010200 20007KT P6SM BKN120
     FM010600 VRB05KT 6SM -SHRA BR SCT010 BKN030
      TEMPO 0109/0113 5SM -SHRA BR BKN010
     FM011600 VRB05KT P6SM VCSH SCT025 BKN050=

USA.gov is the U.S. government's official web portal to all federal, state and local government web resources and services.